createdAt,value
2022-11-08T00:03:08.683Z,10.54
2022-11-08T00:08:10.769Z,10.45
2022-11-08T00:13:12.773Z,10.28
2022-11-08T00:18:16.513Z,10.12
2022-11-08T00:23:18.872Z,9.91
2022-11-08T00:28:20.936Z,9.68
2022-11-08T00:33:24.604Z,9.65
2022-11-08T00:38:26.773Z,9.48
2022-11-08T00:43:28.750Z,9.31
2022-11-08T00:48:32.222Z,9.31
2022-11-08T00:53:36.725Z,9.30
2022-11-08T00:58:38.677Z,9.36
2022-11-08T01:03:42.529Z,9.30
2022-11-08T01:08:45.379Z,9.27
2022-11-08T01:13:47.913Z,9.27
2022-11-08T01:18:55.043Z,9.33
2022-11-08T01:23:57.111Z,9.50
2022-11-08T01:28:59.894Z,9.61
2022-11-08T01:34:03.956Z,9.64
2022-11-08T01:39:06.114Z,9.60
2022-11-08T01:44:16.060Z,9.52
2022-11-08T01:49:29.387Z,9.39
2022-11-08T01:54:36.420Z,9.45
2022-11-08T01:59:41.049Z,9.34
2022-11-08T02:04:44.870Z,9.28
2022-11-08T02:09:47.932Z,9.24
2022-11-08T02:14:49.929Z,9.19
2022-11-08T02:19:53.383Z,9.17
2022-11-08T02:24:57.097Z,9.14
2022-11-08T02:29:59.121Z,8.98
2022-11-08T02:35:02.005Z,8.96
2022-11-08T02:40:07.001Z,9.01
2022-11-08T02:45:09.763Z,9.04
2022-11-08T02:50:11.911Z,9.06
2022-11-08T02:55:14.987Z,9.06
2022-11-08T03:00:17.372Z,8.96
2022-11-08T03:05:19.820Z,8.97
2022-11-08T03:10:24.257Z,9.06
2022-11-08T03:15:26.638Z,9.20
2022-11-08T03:20:32.895Z,9.24
2022-11-08T03:25:36.785Z,9.09
2022-11-08T03:30:39.043Z,8.84
2022-11-08T03:35:41.349Z,8.73
2022-11-08T03:40:46.765Z,8.69
2022-11-08T03:45:48.876Z,8.49
2022-11-08T03:50:51.215Z,8.33
2022-11-08T03:55:54.708Z,8.18
2022-11-08T04:00:56.784Z,8.02
2022-11-08T04:06:00.111Z,7.76
2022-11-08T04:11:04.062Z,7.59
2022-11-08T04:16:06.536Z,7.40
2022-11-08T04:21:15.173Z,7.25
2022-11-08T04:26:19.883Z,7.37
2022-11-08T04:31:21.939Z,7.92
2022-11-08T04:36:24.199Z,8.07
2022-11-08T04:41:28.234Z,8.11
2022-11-08T04:46:30.394Z,8.22
2022-11-08T04:51:33.853Z,8.26
2022-11-08T04:56:37.350Z,8.14
2022-11-08T05:01:39.396Z,7.93
2022-11-08T05:06:41.768Z,7.71
2022-11-08T05:11:45.235Z,7.62
2022-11-08T05:16:47.372Z,7.66
2022-11-08T05:21:49.466Z,7.62
2022-11-08T05:26:52.875Z,7.56
2022-11-08T05:31:55.003Z,7.60
2022-11-08T05:36:56.925Z,7.61
2022-11-08T05:42:00.281Z,7.66
2022-11-08T05:47:02.619Z,7.69
2022-11-08T05:52:05.342Z,7.73
2022-11-08T05:57:08.677Z,7.66
2022-11-08T06:02:12.718Z,7.71
2022-11-08T06:07:14.694Z,7.71
2022-11-08T06:12:18.346Z,7.68
2022-11-08T06:17:20.442Z,7.78
2022-11-08T06:22:22.074Z,7.81
2022-11-08T06:27:26.002Z,7.69
2022-11-08T06:32:27.996Z,7.70
2022-11-08T06:37:30.631Z,7.73
2022-11-08T06:42:33.982Z,7.71
2022-11-08T06:47:36.840Z,7.68
2022-11-08T06:52:38.851Z,7.68
2022-11-08T06:57:42.195Z,7.68
2022-11-08T07:02:43.973Z,7.70
2022-11-08T07:07:46.035Z,7.74
2022-11-08T07:12:57.988Z,7.76
2022-11-08T07:18:01.101Z,7.91
2022-11-08T07:23:03.384Z,8.01
2022-11-08T07:28:13.126Z,8.09
2022-11-08T07:33:16.532Z,8.23
2022-11-08T07:38:20.059Z,8.33
2022-11-08T07:43:23.944Z,8.48
2022-11-08T07:48:27.951Z,8.60
2022-11-08T07:53:30.319Z,8.69
2022-11-08T07:58:33.966Z,8.90
2022-11-08T08:03:35.937Z,9.10
2022-11-08T08:08:37.938Z,9.27
2022-11-08T08:13:41.267Z,9.46
2022-11-08T08:18:43.443Z,9.65
2022-11-08T08:23:45.060Z,9.80
2022-11-08T08:28:48.516Z,10.10
2022-11-08T08:33:50.604Z,10.34
2022-11-08T08:38:52.920Z,10.68
2022-11-08T08:43:56.626Z,10.96
2022-11-08T08:48:58.664Z,11.24
2022-11-08T08:54:00.711Z,11.41
2022-11-08T09:04:26.610Z,12.25
2022-11-08T09:09:28.595Z,12.62
2022-11-08T09:14:31.995Z,12.77
2022-11-08T09:19:34.419Z,12.72
2022-11-08T09:24:36.563Z,12.95
2022-11-08T09:29:42.855Z,13.27
2022-11-08T09:34:45.453Z,13.52
2022-11-08T09:39:47.709Z,13.99
2022-11-08T09:45:09.991Z,14.12
2022-11-08T09:50:17.306Z,15.26
2022-11-08T09:55:26.945Z,17.40
2022-11-08T10:00:31.465Z,18.81
2022-11-08T10:05:41.698Z,18.99
2022-11-08T10:11:02.584Z,17.18
2022-11-08T10:16:15.255Z,16.83
2022-11-08T10:21:31.997Z,17.68
2022-11-08T10:26:37.479Z,18.56
2022-11-08T10:31:43.435Z,19.22
2022-11-08T10:36:47.677Z,18.41
2022-11-08T10:41:57.621Z,18.00
2022-11-08T10:47:03.484Z,19.23
2022-11-08T10:52:18.186Z,18.76
2022-11-08T10:57:25.296Z,19.75
2022-11-08T11:02:34.323Z,18.75
2022-11-08T11:07:36.624Z,20.05
2022-11-08T11:12:38.867Z,21.16
2022-11-08T11:17:44.976Z,18.49
2022-11-08T11:22:47.444Z,18.22
2022-11-08T11:27:54.015Z,17.36
2022-11-08T11:33:00.224Z,16.87
2022-11-08T11:38:08.225Z,16.73
2022-11-08T11:43:17.940Z,16.60
2022-11-08T11:48:27.279Z,16.97
2022-11-08T11:53:32.002Z,17.34
2022-11-08T11:58:58.781Z,17.00
2022-11-08T12:04:21.999Z,16.75
2022-11-08T12:09:48.733Z,16.97
2022-11-08T12:15:00.507Z,17.12
2022-11-08T12:20:14.252Z,16.89
2022-11-08T12:25:23.321Z,16.78
2022-11-08T12:30:32.969Z,17.18
2022-11-08T12:35:44.670Z,17.16
2022-11-08T12:40:54.950Z,16.77
2022-11-08T12:46:06.849Z,16.89
2022-11-08T12:51:19.846Z,16.91
2022-11-08T12:56:25.597Z,16.78
2022-11-08T13:01:27.884Z,16.61
2022-11-08T13:06:39.108Z,16.21
2022-11-08T13:11:47.331Z,15.96
2022-11-08T13:17:15.974Z,16.31
2022-11-08T13:22:57.012Z,16.75
2022-11-08T13:27:59.147Z,16.82
2022-11-08T13:33:12.476Z,16.55
2022-11-08T13:38:27.101Z,16.70
2022-11-08T13:43:31.257Z,16.68
2022-11-08T13:48:41.194Z,16.53
2022-11-08T13:53:47.249Z,16.29
2022-11-08T13:58:49.460Z,16.23
2022-11-08T14:03:56.329Z,16.36
2022-11-08T14:09:07.249Z,16.40
2022-11-08T14:14:40.571Z,16.29
2022-11-08T14:19:45.993Z,16.19
2022-11-08T14:24:52.903Z,16.13
2022-11-08T14:29:59.535Z,15.88
2022-11-08T14:35:12.811Z,15.62
2022-11-08T14:40:20.432Z,15.43
2022-11-08T14:45:26.847Z,15.22
2022-11-08T14:50:32.248Z,14.94
2022-11-08T14:55:37.850Z,14.73
2022-11-08T15:00:43.647Z,14.47
2022-11-08T15:05:54.811Z,14.28
2022-11-08T15:11:01.241Z,14.16
2022-11-08T15:16:05.217Z,14.16
2022-11-08T15:21:21.127Z,14.05
2022-11-08T15:26:27.649Z,13.65
2022-11-08T15:31:34.318Z,13.45
2022-11-08T15:36:37.624Z,13.28
2022-11-08T15:41:41.147Z,13.14
2022-11-08T15:46:44.295Z,13.01
2022-11-08T15:51:47.284Z,12.91
2022-11-08T15:56:52.826Z,12.89
2022-11-08T16:01:58.551Z,12.90
2022-11-08T16:07:00.756Z,12.86
2022-11-08T16:12:05.101Z,12.83
2022-11-08T16:17:14.135Z,12.91
2022-11-08T16:22:19.192Z,12.81
2022-11-08T16:27:23.051Z,12.82
2022-11-08T16:32:25.227Z,12.77
2022-11-08T16:37:27.263Z,12.87
2022-11-08T16:42:30.893Z,12.75
2022-11-08T16:47:33.386Z,12.66
2022-11-08T16:52:38.195Z,12.50
2022-11-08T16:57:41.462Z,12.22
2022-11-08T17:02:46.394Z,12.02
2022-11-08T17:07:49.128Z,12.05
2022-11-08T17:12:53.037Z,12.03
2022-11-08T17:17:56.640Z,11.94
2022-11-08T17:22:58.927Z,11.99
2022-11-08T17:28:02.668Z,11.81
2022-11-08T17:33:04.819Z,11.71
2022-11-08T17:38:07.132Z,11.52
2022-11-08T17:43:10.568Z,11.26
2022-11-08T17:48:12.190Z,11.14
2022-11-08T17:53:14.396Z,11.09
2022-11-08T17:58:17.753Z,11.18
2022-11-08T18:03:20.795Z,11.11
2022-11-08T18:08:26.869Z,10.96
2022-11-08T18:13:32.225Z,11.14
2022-11-08T18:18:34.506Z,11.58
2022-11-08T18:23:36.731Z,11.97
2022-11-08T18:28:40.925Z,12.10
2022-11-08T18:33:43.788Z,12.22
2022-11-08T18:38:46.432Z,12.41
2022-11-08T18:43:50.152Z,12.33
2022-11-08T18:48:52.651Z,12.43
2022-11-08T18:53:54.541Z,12.62
2022-11-08T18:58:57.977Z,12.77
2022-11-08T19:03:59.609Z,12.99
2022-11-08T19:09:01.579Z,12.86
2022-11-08T19:14:04.701Z,12.95
2022-11-08T19:19:06.629Z,12.96
2022-11-08T19:24:08.466Z,13.10
2022-11-08T19:29:12.259Z,13.02
2022-11-08T19:34:14.390Z,12.92
2022-11-08T19:39:16.049Z,12.92
2022-11-08T19:44:19.748Z,13.00
2022-11-08T19:49:22.071Z,12.98
2022-11-08T19:54:24.223Z,12.91
2022-11-08T19:59:27.486Z,12.91
2022-11-08T20:04:29.855Z,12.84
2022-11-08T20:09:32.025Z,12.65
2022-11-08T20:14:35.968Z,12.64
2022-11-08T20:19:37.712Z,12.44
2022-11-08T20:24:39.575Z,12.65
2022-11-08T20:29:43.026Z,12.59
2022-11-08T20:34:46.109Z,12.58
2022-11-08T20:39:48.456Z,12.50
2022-11-08T20:44:51.794Z,12.46
2022-11-08T20:49:56.233Z,12.27
2022-11-08T20:54:58.029Z,12.15
2022-11-08T21:00:12.356Z,12.19
2022-11-08T21:05:15.453Z,12.19
2022-11-08T21:10:41.558Z,12.21
2022-11-08T21:15:43.626Z,12.14
2022-11-08T21:20:45.664Z,11.98
2022-11-08T21:25:51.056Z,12.00
2022-11-08T21:30:54.797Z,11.94
2022-11-08T21:35:57.682Z,11.86
2022-11-08T21:41:05.586Z,11.92
2022-11-08T21:46:21.462Z,11.90
2022-11-08T21:51:23.559Z,11.82
2022-11-08T21:56:28.761Z,11.78
2022-11-08T22:01:32.246Z,11.68
2022-11-08T22:06:36.037Z,11.73
2022-11-08T22:11:38.234Z,11.83
2022-11-08T22:16:41.616Z,11.75
2022-11-08T22:21:43.619Z,11.78
2022-11-08T22:26:46.355Z,11.79
2022-11-08T22:31:49.730Z,11.78
2022-11-08T22:36:51.720Z,11.73
2022-11-08T22:41:54.443Z,11.74
2022-11-08T22:46:57.453Z,11.79
2022-11-08T22:51:59.614Z,11.70
2022-11-08T22:57:01.498Z,11.67
2022-11-08T23:02:04.913Z,11.65
2022-11-08T23:07:06.945Z,11.65
2022-11-08T23:12:09.738Z,11.59
2022-11-08T23:17:12.774Z,11.60
2022-11-08T23:22:16.373Z,11.53
2022-11-08T23:27:19.440Z,11.51
2022-11-08T23:32:22.915Z,11.54
2022-11-08T23:37:25.028Z,11.56
2022-11-08T23:42:26.671Z,11.48
2022-11-08T23:47:30.027Z,11.46
2022-11-08T23:52:32.976Z,11.45
2022-11-08T23:57:35.226Z,11.43
